Time;durP1;ratioP1;P1;durP2;ratioP2;P2;SDS_P1;SDS_P2;PMS_P1;PMS_P2;Temp;Humidity;BMP_temperature;BMP_pressure;BME280_temperature;BME280_humidity;BME280_pressure;Samples;Min_cycle;Max_cycle;Signal;HPM_P1;HPM_P2
2022/08/21 00:00:43;;;;;;;1.02;1.02;;;25.90;59.20;;;;;;5047650;28;20087;-63
2022/08/21 00:03:11;;;;;;;1.10;1.00;;;25.90;59.20;;;;;;5048921;28;20045;-63
2022/08/21 00:05:49;;;;;;;1.40;1.30;;;25.90;59.20;;;;;;5049061;28;20052;-63
2022/08/21 00:08:18;;;;;;;1.25;1.02;;;25.90;59.20;;;;;;5047174;28;20056;-63
2022/08/21 00:10:46;;;;;;;1.40;1.30;;;25.90;59.20;;;;;;5048222;28;20045;-63
2022/08/21 00:13:14;;;;;;;1.30;1.20;;;25.90;59.20;;;;;;5048662;28;20547;-63
2022/08/21 00:15:44;;;;;;;3.38;1.08;;;25.80;59.20;;;;;;5048483;28;20327;-63
2022/08/21 00:18:12;;;;;;;2.90;1.13;;;25.80;59.20;;;;;;5047254;28;20044;-63
2022/08/21 00:20:44;;;;;;;1.10;1.00;;;25.90;59.20;;;;;;5042131;28;20049;-63
2022/08/21 00:23:12;;;;;;;1.30;1.20;;;25.90;59.20;;;;;;5047713;28;20048;-63
2022/08/21 00:25:42;;;;;;;1.40;1.10;;;25.90;59.20;;;;;;5048271;28;20110;-63
2022/08/21 00:28:09;;;;;;;1.05;1.00;;;25.80;59.20;;;;;;5047729;28;20072;-63
2022/08/21 00:30:37;;;;;;;1.17;1.10;;;25.90;59.20;;;;;;5047231;28;20106;-63
2022/08/21 00:33:06;;;;;;;2.22;1.10;;;25.90;59.20;;;;;;5047500;28;20057;-63
2022/08/21 00:35:36;;;;;;;1.10;1.00;;;25.90;59.20;;;;;;5048541;28;20087;-63
2022/08/21 00:38:07;;;;;;;1.00;0.90;;;25.90;59.20;;;;;;5048116;28;20448;-64
2022/08/21 00:40:48;;;;;;;1.13;0.95;;;25.80;59.10;;;;;;5048121;28;20079;-62
2022/08/21 00:43:25;;;;;;;4.20;1.30;;;25.90;59.10;;;;;;5048189;28;20278;-63
2022/08/21 00:45:53;;;;;;;0.93;0.93;;;25.80;59.00;;;;;;5047900;28;20130;-63
2022/08/21 00:48:20;;;;;;;0.82;0.82;;;25.90;59.10;;;;;;5047998;28;20079;-63
2022/08/21 00:51:02;;;;;;;1.10;1.00;;;25.90;59.10;;;;;;5046546;28;20045;-62
2022/08/21 00:53:31;;;;;;;0.90;0.88;;;25.90;59.00;;;;;;5027054;28;20047;-63
2022/08/21 00:56:02;;;;;;;0.88;0.88;;;25.90;59.00;;;;;;5047366;28;20106;-62
2022/08/21 00:58:31;;;;;;;1.00;1.00;;;25.80;59.00;;;;;;5047471;28;20049;-63
2022/08/21 01:01:01;;;;;;;1.75;1.33;;;25.90;59.00;;;;;;5047694;28;20041;-63
2022/08/21 01:03:35;;;;;;;1.10;1.10;;;25.90;59.00;;;;;;5047838;28;20056;-63
2022/08/21 01:06:04;;;;;;;0.93;0.93;;;25.90;59.00;;;;;;5048308;28;20049;-64
2022/08/21 01:08:32;;;;;;;1.42;1.25;;;25.80;59.00;;;;;;5046107;28;20057;-63
2022/08/21 01:11:01;;;;;;;0.98;0.98;;;25.80;59.00;;;;;;5047785;28;20098;-63
2022/08/21 01:13:31;;;;;;;0.93;0.93;;;25.90;59.00;;;;;;5047770;28;20059;-63
2022/08/21 01:16:00;;;;;;;1.50;0.90;;;25.80;59.00;;;;;;5047411;28;20429;-63
2022/08/21 01:18:28;;;;;;;0.98;0.98;;;25.80;59.00;;;;;;5046286;28;20282;-63
2022/08/21 01:21:18;;;;;;;1.67;1.40;;;25.80;59.00;;;;;;5046497;28;20095;-63
2022/08/21 01:23:50;;;;;;;1.83;1.30;;;25.80;59.00;;;;;;5042807;28;20052;-63
2022/08/21 01:26:21;;;;;;;0.82;0.82;;;25.80;59.00;;;;;;5045780;28;20114;-63
2022/08/21 01:29:19;;;;;;;0.90;0.90;;;25.80;59.00;;;;;;5046940;28;20512;-63
2022/08/21 01:31:46;;;;;;;1.08;1.00;;;25.80;59.00;;;;;;5047153;28;20045;-63
2022/08/21 01:34:15;;;;;;;0.82;0.82;;;25.80;59.00;;;;;;5046742;28;20472;-63
2022/08/21 01:36:44;;;;;;;1.00;1.00;;;25.80;59.00;;;;;;5046202;28;20101;-63
2022/08/21 01:39:11;;;;;;;0.90;0.88;;;25.80;59.00;;;;;;5046941;28;20285;-63
2022/08/21 01:41:39;;;;;;;0.88;0.88;;;25.80;58.90;;;;;;5045942;28;20049;-62
2022/08/21 01:44:06;;;;;;;0.90;0.90;;;25.80;58.90;;;;;;5046883;28;20333;-63
2022/08/21 01:46:34;;;;;;;1.10;1.05;;;25.80;59.00;;;;;;5045162;28;20049;-62
2022/08/21 01:49:03;;;;;;;1.08;0.98;;;25.80;58.90;;;;;;5047133;28;20068;-63
2022/08/21 01:51:30;;;;;;;1.08;1.08;;;25.80;58.90;;;;;;5045587;28;20049;-63
2022/08/21 01:53:57;;;;;;;0.90;0.90;;;25.80;58.90;;;;;;5045457;28;20102;-63
2022/08/21 01:56:25;;;;;;;1.00;0.90;;;25.80;58.90;;;;;;5041996;28;20224;-63
2022/08/21 01:58:53;;;;;;;1.00;1.00;;;25.80;58.80;;;;;;5046728;28;20276;-65
2022/08/21 02:01:20;;;;;;;0.93;0.93;;;25.80;58.80;;;;;;5046786;28;20041;-63
2022/08/21 02:03:47;;;;;;;0.90;0.90;;;25.80;58.80;;;;;;5046169;28;20452;-63
2022/08/21 02:06:17;;;;;;;2.35;0.93;;;25.80;58.80;;;;;;5046080;28;20229;-64
2022/08/21 02:08:46;;;;;;;1.17;1.08;;;25.80;58.80;;;;;;5046492;28;20057;-63
2022/08/21 02:11:13;;;;;;;0.65;0.65;;;25.80;58.80;;;;;;5045966;28;20057;-63
2022/08/21 02:13:40;;;;;;;0.98;0.90;;;25.80;58.70;;;;;;5046503;28;20048;-63
2022/08/21 02:16:08;;;;;;;0.98;0.98;;;25.80;58.70;;;;;;5044692;28;21890;-63
2022/08/21 02:18:36;;;;;;;0.95;0.90;;;25.80;58.70;;;;;;5046306;28;20049;-63
2022/08/21 02:21:04;;;;;;;1.00;1.00;;;25.80;58.80;;;;;;5045904;28;20453;-63
2022/08/21 02:23:31;;;;;;;0.82;0.82;;;25.80;58.70;;;;;;5044727;28;20107;-63
2022/08/21 02:26:00;;;;;;;0.80;0.80;;;25.80;58.80;;;;;;5044252;28;20045;-63
2022/08/21 02:28:27;;;;;;;0.70;0.70;;;25.80;58.80;;;;;;5042801;28;20130;-63
2022/08/21 02:30:56;;;;;;;1.27;0.80;;;25.80;58.80;;;;;;5044799;28;20456;-63
2022/08/21 02:33:25;;;;;;;0.93;0.90;;;25.80;58.80;;;;;;5044287;28;20279;-63
2022/08/21 02:35:53;;;;;;;1.45;1.13;;;25.80;58.80;;;;;;5045874;28;20551;-63
2022/08/21 02:38:24;;;;;;;3.97;1.23;;;25.80;58.80;;;;;;5046119;28;20083;-63
2022/08/21 02:40:53;;;;;;;0.75;0.75;;;25.80;58.80;;;;;;5044778;28;20448;-63
2022/08/21 02:43:22;;;;;;;0.93;0.93;;;25.80;58.80;;;;;;5046094;28;20497;-63
2022/08/21 02:45:50;;;;;;;0.70;0.70;;;25.80;58.80;;;;;;5046077;28;20470;-63
2022/08/21 02:48:21;;;;;;;0.90;0.90;;;25.80;58.80;;;;;;5045884;28;20053;-65
2022/08/21 02:50:52;;;;;;;0.80;0.80;;;25.80;58.80;;;;;;5045196;28;20551;-63
2022/08/21 02:53:19;;;;;;;0.80;0.80;;;25.80;58.80;;;;;;5045658;28;20201;-64
2022/08/21 02:55:50;;;;;;;0.82;0.82;;;25.80;58.80;;;;;;5045540;28;20045;-63
2022/08/21 02:58:21;;;;;;;0.80;0.80;;;25.80;58.80;;;;;;5040586;28;20053;-63
2022/08/21 03:00:48;;;;;;;1.65;1.08;;;25.80;58.80;;;;;;5045766;28;20041;-63
2022/08/21 03:03:15;;;;;;;0.63;0.63;;;25.80;58.80;;;;;;5045468;28;20502;-63
2022/08/21 03:05:43;;;;;;;0.75;0.75;;;25.80;58.80;;;;;;5045961;28;20452;-63
2022/08/21 03:08:13;;;;;;;0.93;0.93;;;25.80;58.80;;;;;;5045601;28;20053;-63
2022/08/21 03:10:43;;;;;;;0.70;0.70;;;25.80;58.80;;;;;;5044010;28;20128;-63
2022/08/21 03:13:11;;;;;;;0.70;0.70;;;25.80;58.70;;;;;;5044995;28;20102;-63
2022/08/21 03:15:39;;;;;;;0.80;0.80;;;25.80;58.70;;;;;;5044839;28;20398;-63
2022/08/21 03:18:08;;;;;;;0.70;0.70;;;25.80;58.70;;;;;;5044332;28;20118;-63
2022/08/21 03:20:37;;;;;;;0.90;0.90;;;25.80;58.70;;;;;;5045066;28;20048;-63
2022/08/21 03:23:05;;;;;;;0.82;0.82;;;25.80;58.60;;;;;;5045317;28;20379;-63
2022/08/21 03:25:40;;;;;;;0.80;0.80;;;25.80;58.60;;;;;;5045169;28;20136;-63
2022/08/21 03:28:10;;;;;;;0.98;0.82;;;25.80;58.60;;;;;;5045420;28;20114;-63
2022/08/21 03:30:44;;;;;;;0.80;0.80;;;25.80;58.60;;;;;;5040591;28;20080;-63
2022/08/21 03:33:12;;;;;;;0.60;0.60;;;25.80;58.60;;;;;;5045054;28;20049;-63
2022/08/21 03:35:44;;;;;;;0.82;0.73;;;25.80;58.50;;;;;;5045514;28;20528;-63
2022/08/21 03:38:13;;;;;;;0.60;0.60;;;25.80;58.60;;;;;;5044999;28;20494;-63
2022/08/21 03:40:41;;;;;;;1.25;1.15;;;25.80;58.60;;;;;;5043473;28;20052;-63
2022/08/21 03:43:09;;;;;;;0.60;0.60;;;25.80;58.60;;;;;;5045052;28;20064;-63
2022/08/21 03:45:37;;;;;;;0.70;0.70;;;25.80;58.60;;;;;;5045180;28;20523;-63
2022/08/21 03:48:07;;;;;;;0.60;0.60;;;25.80;58.50;;;;;;5045286;28;20083;-63
2022/08/21 03:50:38;;;;;;;0.70;0.70;;;25.80;58.50;;;;;;5043385;28;20045;-63
2022/08/21 03:53:09;;;;;;;0.93;0.93;;;25.70;58.50;;;;;;5044938;28;20052;-63
2022/08/21 03:55:45;;;;;;;0.63;0.63;;;25.80;58.60;;;;;;5043711;28;20490;-63
2022/08/21 03:58:15;;;;;;;1.00;0.90;;;25.80;58.60;;;;;;5044872;28;20576;-64
2022/08/21 04:00:45;;;;;;;1.15;0.70;;;25.80;58.60;;;;;;5042272;28;20053;-63
2022/08/21 04:03:12;;;;;;;0.50;0.50;;;25.80;58.50;;;;;;5041457;28;20481;-63
2022/08/21 04:05:40;;;;;;;0.68;0.68;;;25.70;58.50;;;;;;5043478;28;20049;-63
2022/08/21 04:08:08;;;;;;;0.60;0.60;;;25.80;58.60;;;;;;5044921;28;20497;-63
2022/08/21 04:10:38;;;;;;;0.80;0.80;;;25.80;58.50;;;;;;5044710;28;20057;-63
2022/08/21 04:13:08;;;;;;;0.65;0.65;;;25.80;58.50;;;;;;5044736;28;20465;-63
2022/08/21 04:15:36;;;;;;;0.70;0.70;;;25.80;58.50;;;;;;5044754;28;20383;-63
2022/08/21 04:18:04;;;;;;;0.63;0.63;;;25.80;58.50;;;;;;5044706;28;20045;-63
2022/08/21 04:20:31;;;;;;;0.93;0.93;;;25.80;58.50;;;;;;5043350;28;20079;-63
2022/08/21 04:22:58;;;;;;;0.80;0.80;;;25.80;58.50;;;;;;5044539;28;20552;-63
2022/08/21 04:25:26;;;;;;;0.70;0.70;;;25.80;58.50;;;;;;5045509;28;20139;-65
2022/08/21 04:27:53;;;;;;;0.50;0.50;;;25.80;58.40;;;;;;5030737;28;20053;-66
2022/08/21 04:30:21;;;;;;;0.73;0.73;;;25.80;58.40;;;;;;5048415;28;20048;-63
2022/08/21 04:32:56;;;;;;;0.40;0.40;;;25.80;58.40;;;;;;5043636;28;20037;-63
2022/08/21 04:35:26;;;;;;;0.70;0.70;;;25.80;58.30;;;;;;5047868;28;20515;-63
2022/08/21 04:37:54;;;;;;;0.60;0.55;;;25.80;58.30;;;;;;5047338;28;20059;-63
2022/08/21 04:40:24;;;;;;;0.60;0.60;;;25.80;58.20;;;;;;5048342;28;20436;-63
2022/08/21 04:42:56;;;;;;;0.50;0.50;;;25.90;58.20;;;;;;5048473;28;20049;-63
2022/08/21 04:45:31;;;;;;;0.80;0.80;;;25.80;58.10;;;;;;5048038;28;20218;-63
2022/08/21 04:48:01;;;;;;;0.40;0.40;;;25.90;58.10;;;;;;5048377;28;20080;-63
2022/08/21 04:50:47;;;;;;;1.30;0.93;;;25.90;58.10;;;;;;5047943;28;20095;-63
2022/08/21 04:53:33;;;;;;;0.50;0.50;;;25.90;58.00;;;;;;5046531;28;20372;-63
2022/08/21 04:56:15;;;;;;;0.60;0.60;;;25.90;58.00;;;;;;5047258;28;20436;-63
2022/08/21 04:58:42;;;;;;;0.70;0.70;;;25.90;58.00;;;;;;5046470;28;20107;-63
2022/08/21 05:01:14;;;;;;;0.52;0.52;;;25.90;57.90;;;;;;5046661;28;20045;-64
2022/08/21 05:03:42;;;;;;;0.65;0.65;;;25.90;57.80;;;;;;5048379;28;20049;-64
2022/08/21 05:06:14;;;;;;;0.70;0.70;;;25.90;57.70;;;;;;5041362;28;20049;-63
2022/08/21 05:08:43;;;;;;;0.50;0.50;;;25.90;57.50;;;;;;5047590;28;20049;-64
2022/08/21 05:11:10;;;;;;;0.80;0.80;;;26.00;57.50;;;;;;5045312;28;20040;-64
2022/08/21 05:13:37;;;;;;;0.90;0.80;;;25.90;57.40;;;;;;5044200;28;20456;-63
2022/08/21 05:16:05;;;;;;;0.70;0.70;;;25.80;57.40;;;;;;5046905;28;20055;-64
2022/08/21 05:18:32;;;;;;;0.75;0.75;;;25.70;57.60;;;;;;5047458;28;20053;-63
2022/08/21 05:20:59;;;;;;;0.47;0.47;;;25.50;57.10;;;;;;5047464;28;20176;-63
2022/08/21 05:23:26;;;;;;;0.80;0.80;;;25.30;56.10;;;;;;5047030;28;20052;-63
2022/08/21 05:25:55;;;;;;;0.40;0.40;;;25.00;55.30;;;;;;5047617;28;20440;-63
2022/08/21 05:28:23;;;;;;;0.38;0.38;;;24.70;54.60;;;;;;5045386;28;20060;-63
2022/08/21 05:30:53;;;;;;;0.70;0.70;;;24.40;53.80;;;;;;5046244;28;20052;-63
2022/08/21 05:33:20;;;;;;;0.63;0.63;;;24.10;53.60;;;;;;5045488;28;20497;-63
2022/08/21 05:35:51;;;;;;;0.47;0.47;;;23.80;53.00;;;;;;5045746;28;20099;-63
2022/08/21 05:38:19;;;;;;;0.63;0.63;;;23.40;52.80;;;;;;5043757;28;20073;-63
2022/08/21 05:40:47;;;;;;;0.77;0.60;;;23.10;52.90;;;;;;5047100;28;20049;-63
2022/08/21 05:43:15;;;;;;;1.63;0.77;;;22.70;52.70;;;;;;5046689;28;20128;-63
2022/08/21 05:45:43;;;;;;;1.80;0.63;;;22.40;52.50;;;;;;5047634;28;20044;-63
2022/08/21 05:48:19;;;;;;;0.88;0.88;;;22.10;52.90;;;;;;5047075;28;20122;-63
2022/08/21 05:50:49;;;;;;;0.57;0.57;;;21.90;53.90;;;;;;5046033;28;20146;-65
2022/08/21 05:53:18;;;;;;;0.60;0.60;;;21.60;54.40;;;;;;5046919;28;20041;-63
2022/08/21 05:55:46;;;;;;;0.60;0.60;;;21.40;55.50;;;;;;5047253;28;20528;-63
2022/08/21 05:58:17;;;;;;;0.65;0.65;;;21.20;55.10;;;;;;5046363;28;20502;-64
2022/08/21 06:00:47;;;;;;;;;;;21.10;55.20;;;;;;5047386;28;20403;-64
2022/08/21 06:03:17;;;;;;;0.98;0.93;;;20.90;54.90;;;;;;5046958;28;20501;-64
2022/08/21 06:05:45;;;;;;;0.55;0.55;;;20.80;55.30;;;;;;5046515;28;20505;-64
2022/08/21 06:08:13;;;;;;;0.70;0.70;;;20.70;55.70;;;;;;5041740;28;20057;-64
2022/08/21 06:10:41;;;;;;;0.60;0.60;;;20.60;56.00;;;;;;5029012;28;20049;-64
2022/08/21 06:13:08;;;;;;;0.77;0.77;;;20.40;56.10;;;;;;5046314;28;20085;-64
2022/08/21 06:15:35;;;;;;;0.77;0.77;;;20.40;56.70;;;;;;5043938;28;20529;-64
2022/08/21 06:18:02;;;;;;;0.82;0.80;;;20.30;56.50;;;;;;5043247;28;20044;-64
2022/08/21 06:20:57;;;;;;;0.60;0.60;;;20.20;56.20;;;;;;5044910;28;20044;-65
2022/08/21 06:23:26;;;;;;;0.88;0.73;;;20.10;56.40;;;;;;5045807;28;20079;-64
2022/08/21 06:26:00;;;;;;;0.95;0.95;;;20.00;56.70;;;;;;5046035;28;20055;-64
2022/08/21 06:28:27;;;;;;;0.85;0.85;;;19.90;56.50;;;;;;5046169;28;20111;-64
2022/08/21 06:30:55;;;;;;;0.60;0.60;;;19.90;56.70;;;;;;5045565;28;20574;-65
2022/08/21 06:33:23;;;;;;;0.70;0.70;;;19.90;57.10;;;;;;5044899;28;20456;-64
2022/08/21 06:35:53;;;;;;;0.88;0.80;;;19.80;57.30;;;;;;5045896;28;20053;-64
2022/08/21 06:38:20;;;;;;;1.17;0.82;;;19.80;56.90;;;;;;5045390;28;20049;-64
2022/08/21 06:40:47;;;;;;;0.77;0.77;;;19.70;57.10;;;;;;5039411;28;20076;-64
2022/08/21 06:43:17;;;;;;;0.70;0.70;;;19.70;56.60;;;;;;5045011;28;20106;-64
2022/08/21 06:45:44;;;;;;;0.90;0.90;;;19.60;56.10;;;;;;5045781;28;20230;-64
2022/08/21 06:48:12;;;;;;;0.70;0.70;;;19.50;56.50;;;;;;5045159;28;20087;-64
2022/08/21 06:50:45;;;;;;;1.05;1.05;;;19.40;57.20;;;;;;5044474;28;20060;-64
2022/08/21 06:53:15;;;;;;;0.68;0.60;;;19.30;57.30;;;;;;5044327;28;20114;-64
2022/08/21 06:55:42;;;;;;;0.73;0.73;;;19.20;57.20;;;;;;5044362;28;20501;-64
2022/08/21 06:58:11;;;;;;;1.05;0.73;;;19.10;57.70;;;;;;5045765;28;20383;-64
2022/08/21 07:00:44;;;;;;;0.82;0.82;;;19.00;58.10;;;;;;5045326;28;20095;-64
2022/08/21 07:03:27;;;;;;;0.80;0.80;;;18.90;57.80;;;;;;5044401;28;20218;-64
2022/08/21 07:05:56;;;;;;;0.82;0.82;;;18.90;57.90;;;;;;5044895;28;20041;-64
2022/08/21 07:08:24;;;;;;;0.75;0.75;;;18.80;58.10;;;;;;5045785;28;20319;-64
2022/08/21 07:10:52;;;;;;;1.02;1.02;;;18.80;58.40;;;;;;5043720;28;20041;-64
2022/08/21 07:13:19;;;;;;;0.60;0.60;;;18.80;58.20;;;;;;5042536;28;20102;-65
2022/08/21 07:15:46;;;;;;;0.80;0.80;;;18.80;58.40;;;;;;5045303;28;20052;-64
2022/08/21 07:18:14;;;;;;;1.10;1.00;;;18.70;59.10;;;;;;5044984;28;20041;-65
2022/08/21 07:20:42;;;;;;;0.80;0.80;;;18.70;58.80;;;;;;5045016;28;20377;-64
2022/08/21 07:23:18;;;;;;;0.80;0.80;;;18.70;58.40;;;;;;5045252;28;20079;-65
2022/08/21 07:25:45;;;;;;;1.00;1.00;;;18.70;58.60;;;;;;5043868;28;20177;-64
2022/08/21 07:28:13;;;;;;;1.17;1.08;;;18.70;59.10;;;;;;5045389;28;20060;-65
2022/08/21 07:30:40;;;;;;;0.82;0.80;;;18.70;59.20;;;;;;5044007;28;20044;-64
2022/08/21 07:33:07;;;;;;;1.30;1.15;;;18.70;58.90;;;;;;5045777;28;20130;-65
2022/08/21 07:35:35;;;;;;;1.73;1.40;;;18.70;58.80;;;;;;5044897;28;20111;-64
2022/08/21 07:38:02;;;;;;;1.08;0.80;;;18.70;58.80;;;;;;5044608;28;20045;-64
2022/08/21 07:40:29;;;;;;;1.00;1.00;;;18.70;58.80;;;;;;5043427;28;20103;-64
2022/08/21 07:42:56;;;;;;;1.33;0.90;;;18.70;58.90;;;;;;5040554;28;20052;-64
2022/08/21 07:45:24;;;;;;;3.10;1.05;;;18.70;59.60;;;;;;5045097;28;20135;-64
2022/08/21 07:47:51;;;;;;;1.35;0.77;;;18.70;58.90;;;;;;5043155;28;20060;-64
2022/08/21 07:50:24;;;;;;;1.00;0.98;;;18.60;59.00;;;;;;5045080;28;20055;-65
2022/08/21 07:52:52;;;;;;;1.30;0.75;;;18.60;58.90;;;;;;5044827;28;20135;-64
2022/08/21 07:55:21;;;;;;;0.77;0.77;;;18.60;59.50;;;;;;5043166;28;20045;-65
2022/08/21 07:57:49;;;;;;;0.80;0.80;;;18.60;59.60;;;;;;5043922;28;20098;-64
2022/08/21 08:00:19;;;;;;;1.00;1.00;;;18.60;59.50;;;;;;5044758;28;20448;-65
2022/08/21 08:02:50;;;;;;;0.80;0.80;;;18.70;59.10;;;;;;5047529;28;20744;-64
2022/08/21 08:05:20;;;;;;;1.00;0.98;;;18.70;59.60;;;;;;5048456;28;20060;-64
2022/08/21 08:07:47;;;;;;;1.00;1.00;;;18.70;59.10;;;;;;5048976;28;20478;-65
2022/08/21 08:10:15;;;;;;;1.35;0.80;;;18.70;59.50;;;;;;5048995;28;20052;-65
2022/08/21 08:12:44;;;;;;;3.25;0.90;;;18.80;59.80;;;;;;5049195;28;20582;-64
2022/08/21 08:15:18;;;;;;;0.93;0.93;;;18.80;59.70;;;;;;5044289;28;20138;-65
2022/08/21 08:17:45;;;;;;;0.75;0.70;;;18.80;59.60;;;;;;5046849;28;20044;-64
2022/08/21 08:20:15;;;;;;;2.15;1.00;;;18.90;59.70;;;;;;5048635;28;20339;-65
2022/08/21 08:22:42;;;;;;;0.68;0.68;;;18.90;59.60;;;;;;5048215;28;20115;-64
2022/08/21 08:25:17;;;;;;;0.93;0.93;;;18.90;59.20;;;;;;5048700;28;20469;-65
2022/08/21 08:27:44;;;;;;;1.08;1.05;;;18.90;59.60;;;;;;5046718;28;20504;-64
2022/08/21 08:30:15;;;;;;;1.33;1.13;;;19.00;60.40;;;;;;5048034;28;20052;-66
2022/08/21 08:32:42;;;;;;;1.20;1.10;;;19.00;59.80;;;;;;5047140;28;20052;-64
2022/08/21 08:35:11;;;;;;;1.13;1.00;;;19.00;59.80;;;;;;5047911;28;20071;-64
2022/08/21 08:37:40;;;;;;;2.33;0.82;;;19.00;59.60;;;;;;5046858;28;20041;-64
2022/08/21 08:40:13;;;;;;;1.38;1.05;;;19.00;60.70;;;;;;5048215;28;20517;-64
2022/08/21 08:42:41;;;;;;;1.00;0.93;;;19.10;60.00;;;;;;5045177;28;20144;-64
2022/08/21 08:45:16;;;;;;;1.13;1.10;;;19.10;59.90;;;;;;5043759;28;20056;-64
2022/08/21 08:47:48;;;;;;;1.27;1.17;;;19.10;60.10;;;;;;5043433;28;20439;-64
2022/08/21 08:50:25;;;;;;;1.17;0.88;;;19.10;59.80;;;;;;5047266;28;20436;-65
2022/08/21 08:52:58;;;;;;;1.45;1.17;;;19.20;60.00;;;;;;5047139;28;20052;-64
2022/08/21 08:55:32;;;;;;;1.45;1.35;;;19.20;60.00;;;;;;5047633;28;20080;-64
2022/08/21 08:58:02;;;;;;;1.35;1.10;;;19.20;59.70;;;;;;5048194;28;20561;-64
2022/08/21 09:00:31;;;;;;;1.10;1.00;;;19.20;59.50;;;;;;5046849;28;20045;-64
2022/08/21 09:03:01;;;;;;;1.13;1.02;;;19.20;59.60;;;;;;5044600;28;20500;-64
2022/08/21 09:05:45;;;;;;;0.90;0.90;;;19.20;59.70;;;;;;5032234;28;20173;-64
2022/08/21 09:08:50;;;;;;;1.90;1.63;;;19.20;59.80;;;;;;5047934;28;20057;-64
2022/08/21 09:11:30;;;;;;;1.17;1.08;;;19.30;59.40;;;;;;5042135;28;20094;-64
2022/08/21 09:14:25;;;;;;;1.00;1.00;;;19.30;59.70;;;;;;5030148;28;20481;-64
2022/08/21 09:17:10;;;;;;;1.30;1.10;;;19.30;59.70;;;;;;5049184;28;20060;-64
2022/08/21 09:20:07;;;;;;;1.02;0.95;;;19.30;59.30;;;;;;5027618;28;20524;-64
2022/08/21 09:23:05;;;;;;;0.95;0.90;;;19.30;59.20;;;;;;5027517;28;20091;-64
2022/08/21 09:25:45;;;;;;;1.15;1.00;;;19.30;58.80;;;;;;5034835;28;20114;-64
2022/08/21 09:28:14;;;;;;;1.13;1.00;;;19.30;59.00;;;;;;5047395;28;20119;-64
2022/08/21 09:30:41;;;;;;;1.00;1.00;;;19.30;59.00;;;;;;5046859;28;20052;-64
2022/08/21 09:33:12;;;;;;;1.33;1.15;;;19.40;59.10;;;;;;5047113;28;20080;-64
2022/08/21 09:35:52;;;;;;;0.88;0.88;;;19.40;59.00;;;;;;5047122;28;20576;-64
2022/08/21 09:38:27;;;;;;;0.93;0.93;;;19.40;58.60;;;;;;5047532;28;20439;-64
2022/08/21 09:41:06;;;;;;;0.77;0.77;;;19.40;59.00;;;;;;5030488;28;20536;-64
2022/08/21 09:43:34;;;;;;;1.17;1.17;;;19.40;58.70;;;;;;5046958;28;20448;-64
2022/08/21 09:46:19;;;;;;;1.13;1.10;;;19.40;58.70;;;;;;5047313;28;20488;-64
2022/08/21 09:48:58;;;;;;;1.65;0.80;;;19.40;59.00;;;;;;5042215;28;20095;-64
2022/08/21 09:51:35;;;;;;;0.90;0.80;;;19.40;59.30;;;;;;5029556;28;20095;-64
2022/08/21 09:54:18;;;;;;;2.42;0.80;;;19.40;59.20;;;;;;5046520;28;20075;-64
2022/08/21 09:59:48;;;;;;;1.17;1.00;;;19.40;58.90;;;;;;5046550;28;20041;-64
2022/08/21 10:02:32;;;;;;;0.82;0.82;;;19.40;59.30;;;;;;5046477;28;20545;-64
2022/08/21 10:05:16;;;;;;;2.97;0.80;;;19.40;59.20;;;;;;5046626;28;20048;-64
2022/08/21 10:07:43;;;;;;;1.17;0.80;;;19.40;59.40;;;;;;5046388;28;20296;-65
2022/08/21 10:10:21;;;;;;;0.73;0.73;;;19.40;60.10;;;;;;5046480;28;20090;-64
2022/08/21 10:13:13;;;;;;;1.95;0.88;;;19.50;59.80;;;;;;5046445;28;20045;-64
2022/08/21 10:16:04;;;;;;;2.15;1.00;;;19.50;59.50;;;;;;5045388;28;20107;-64
2022/08/21 10:18:52;;;;;;;0.82;0.82;;;19.60;59.90;;;;;;5044979;28;20103;-64
2022/08/21 10:21:37;;;;;;;0.57;0.57;;;19.60;60.20;;;;;;5042047;28;20045;-64
2022/08/21 10:24:20;;;;;;;0.80;0.80;;;19.60;59.30;;;;;;5045681;28;20077;-64
2022/08/21 10:27:26;;;;;;;0.70;0.70;;;19.60;59.60;;;;;;5046132;28;20214;-64
2022/08/21 10:30:09;;;;;;;1.25;0.90;;;19.60;59.60;;;;;;5045142;28;20506;-65
2022/08/21 10:32:50;;;;;;;0.80;0.80;;;19.70;59.10;;;;;;5046033;28;20049;-64
2022/08/21 10:35:41;;;;;;;1.23;0.82;;;19.60;59.00;;;;;;5045673;28;20048;-64
2022/08/21 10:38:38;;;;;;;0.70;0.70;;;19.60;58.90;;;;;;5045934;28;20053;-64
2022/08/21 10:41:40;;;;;;;0.60;0.60;;;19.60;58.90;;;;;;5045179;28;20051;-64
2022/08/21 10:44:38;;;;;;;0.70;0.70;;;19.60;59.20;;;;;;5046296;28;20095;-64
2022/08/21 10:47:25;;;;;;;1.05;0.70;;;19.60;59.00;;;;;;5045829;28;20053;-64
2022/08/21 10:50:15;;;;;;;0.55;0.55;;;19.60;58.90;;;;;;5045882;28;20223;-64
2022/08/21 10:52:56;;;;;;;0.75;0.75;;;19.60;58.60;;;;;;5041237;28;20508;-64
2022/08/21 10:55:31;;;;;;;0.70;0.65;;;19.60;59.10;;;;;;5045579;28;20544;-64
2022/08/21 10:58:04;;;;;;;0.80;0.80;;;19.60;59.10;;;;;;5045791;28;20106;-64
2022/08/21 11:00:47;;;;;;;0.70;0.70;;;19.60;59.10;;;;;;5045286;28;20106;-64
2022/08/21 11:03:25;;;;;;;1.30;0.70;;;19.60;59.20;;;;;;5045735;28;20076;-64
2022/08/21 11:05:59;;;;;;;0.80;0.80;;;19.60;58.90;;;;;;5045493;28;20099;-64
2022/08/21 11:08:45;;;;;;;1.45;0.73;;;19.60;59.10;;;;;;5045698;28;20394;-64
2022/08/21 11:11:36;;;;;;;0.63;0.60;;;19.70;58.90;;;;;;5045181;28;20053;-64
2022/08/21 11:14:28;;;;;;;0.60;0.60;;;19.70;58.90;;;;;;5041426;28;20076;-64
2022/08/21 11:17:06;;;;;;;0.70;0.70;;;19.70;58.70;;;;;;5030259;28;20474;-64
2022/08/21 11:19:59;;;;;;;0.77;0.77;;;19.70;58.80;;;;;;5025465;28;20092;-64
2022/08/21 11:22:51;;;;;;;0.82;0.70;;;19.70;58.90;;;;;;5037191;28;20106;-64
2022/08/21 11:25:32;;;;;;;1.20;0.82;;;19.70;58.90;;;;;;5042547;28;20387;-64
2022/08/21 11:28:09;;;;;;;0.50;0.50;;;19.70;59.20;;;;;;5045776;28;20049;-64
2022/08/21 11:31:20;;;;;;;0.90;0.90;;;19.70;59.60;;;;;;5043558;28;20102;-64
2022/08/21 11:34:26;;;;;;;0.50;0.50;;;19.80;59.20;;;;;;5044181;28;20067;-65
2022/08/21 11:37:33;;;;;;;1.05;1.02;;;19.80;58.90;;;;;;5044854;28;20459;-65
2022/08/21 11:40:25;;;;;;;0.70;0.70;;;19.80;59.00;;;;;;5026031;28;20099;-65
2022/08/21 11:43:20;;;;;;;1.05;0.82;;;19.80;59.10;;;;;;5024892;28;20054;-64
2022/08/21 11:46:26;;;;;;;0.60;0.60;;;19.80;59.10;;;;;;5024416;28;20057;-65
2022/08/21 11:49:33;;;;;;;0.82;0.70;;;19.80;59.10;;;;;;5025110;28;20042;-64
2022/08/21 11:52:18;;;;;;;0.80;0.80;;;19.80;59.10;;;;;;5025462;28;20053;-64
2022/08/21 11:55:12;;;;;;;0.70;0.70;;;19.80;59.00;;;;;;5021898;28;20045;-65
2022/08/21 11:57:50;;;;;;;2.08;0.88;;;19.80;59.00;;;;;;5023727;28;20179;-64
2022/08/21 12:00:40;;;;;;;0.95;0.95;;;19.80;59.40;;;;;;5024900;28;20088;-65
2022/08/21 12:03:21;;;;;;;0.70;0.70;;;19.80;59.00;;;;;;5024768;28;20107;-65
2022/08/21 12:05:59;;;;;;;1.02;0.93;;;19.80;59.40;;;;;;5024678;28;20491;-65
2022/08/21 12:08:35;;;;;;;0.88;0.88;;;19.80;59.40;;;;;;5031136;28;20288;-65
2022/08/21 12:11:23;;;;;;;0.75;0.60;;;19.80;59.20;;;;;;5043296;28;20041;-65
2022/08/21 12:14:15;;;;;;;0.82;0.82;;;19.90;59.40;;;;;;5044376;28;20536;-65
2022/08/21 12:16:49;;;;;;;0.65;0.65;;;19.80;59.20;;;;;;5044958;28;20075;-65
2022/08/21 12:19:31;;;;;;;1.00;1.00;;;19.80;59.30;;;;;;5044564;28;20049;-65
2022/08/21 12:22:14;;;;;;;0.90;0.90;;;19.80;59.60;;;;;;5044517;28;20045;-65
2022/08/21 12:24:49;;;;;;;0.73;0.73;;;19.90;59.60;;;;;;5044230;28;20045;-65
2022/08/21 12:27:41;;;;;;;3.53;0.85;;;19.90;59.60;;;;;;5037489;28;20076;-65
2022/08/21 12:30:33;;;;;;;0.75;0.75;;;20.00;59.20;;;;;;5044571;28;20049;-65
2022/08/21 12:33:04;;;;;;;1.17;1.08;;;20.00;59.00;;;;;;5027308;28;20193;-65
2022/08/21 12:35:42;;;;;;;1.60;0.80;;;20.10;58.90;;;;;;5044282;28;20057;-65
2022/08/21 12:38:18;;;;;;;1.48;0.60;;;20.10;58.80;;;;;;5027090;28;20087;-66
2022/08/21 12:40:55;;;;;;;0.80;0.80;;;20.20;59.00;;;;;;5044743;28;20041;-65
2022/08/21 12:43:36;;;;;;;1.00;0.93;;;20.10;58.10;;;;;;5044507;28;20092;-65
2022/08/21 12:46:04;;;;;;;0.50;0.50;;;20.20;58.40;;;;;;5045235;28;20145;-65
2022/08/21 12:48:49;;;;;;;1.15;1.05;;;20.20;57.90;;;;;;5046729;28;20052;-65
2022/08/21 12:51:23;;;;;;;0.88;0.88;;;20.20;57.90;;;;;;5048298;28;20541;-65
2022/08/21 12:53:55;;;;;;;0.85;0.85;;;20.20;58.20;;;;;;5047612;28;20508;-64
2022/08/21 12:56:27;;;;;;;2.28;0.93;;;20.20;57.80;;;;;;5048074;28;20048;-64
2022/08/21 12:59:06;;;;;;;3.30;0.80;;;20.10;57.80;;;;;;5043324;28;20049;-64
2022/08/21 13:01:43;;;;;;;1.13;1.00;;;20.20;57.90;;;;;;5046468;28;20139;-65
2022/08/21 13:04:16;;;;;;;0.98;0.95;;;20.10;58.00;;;;;;5047648;28;20056;-65
2022/08/21 13:06:51;;;;;;;0.80;0.70;;;20.10;57.90;;;;;;5047648;28;20045;-64
2022/08/21 13:09:25;;;;;;;0.70;0.70;;;20.10;57.70;;;;;;5047564;28;20075;-65
2022/08/21 13:11:53;;;;;;;0.80;0.80;;;20.10;57.90;;;;;;5047897;28;20087;-65
2022/08/21 13:14:35;;;;;;;0.90;0.90;;;20.10;58.40;;;;;;5047700;28;20099;-65
2022/08/21 13:17:11;;;;;;;0.93;0.88;;;20.10;57.80;;;;;;5047329;28;20068;-65
2022/08/21 13:19:38;;;;;;;1.25;0.90;;;20.10;57.90;;;;;;5047695;28;20041;-65
2022/08/21 13:22:13;;;;;;;3.63;0.93;;;20.10;58.10;;;;;;5046130;28;20465;-65
2022/08/21 13:24:59;;;;;;;1.30;0.80;;;20.00;57.60;;;;;;5046880;28;20409;-66